sensor_id;sensor_type;location;lat;lon;timestamp;pressure;altitude;pressure_sealevel;temperature;humidity
72585;BME280;73873;40.084;32.908;2024-02-14T00:01:38;88895.16;;;6.34;100.00
72585;BME280;73873;40.084;32.908;2024-02-14T00:04:05;88901.09;;;6.29;100.00
72585;BME280;73873;40.084;32.908;2024-02-14T00:06:35;88897.88;;;6.40;100.00
72585;BME280;73873;40.084;32.908;2024-02-14T00:09:02;88893.47;;;6.51;100.00
72585;BME280;73873;40.084;32.908;2024-02-14T00:11:29;88895.72;;;6.59;100.00
72585;BME280;73873;40.084;32.908;2024-02-14T00:13:56;88893.09;;;6.59;100.00
72585;BME280;73873;40.084;32.908;2024-02-14T00:16:23;88886.91;;;6.47;100.00
72585;BME280;73873;40.084;32.908;2024-02-14T00:18:50;88886.72;;;6.50;100.00
72585;BME280;73873;40.084;32.908;2024-02-14T00:21:17;88884.72;;;6.45;100.00
72585;BME280;73873;40.084;32.908;2024-02-14T00:23:44;88883.72;;;6.43;100.00
72585;BME280;73873;40.084;32.908;2024-02-14T00:26:11;88886.34;;;6.58;100.00
72585;BME280;73873;40.084;32.908;2024-02-14T00:28:38;88879.91;;;6.64;100.00
72585;BME280;73873;40.084;32.908;2024-02-14T00:31:06;88878.53;;;6.69;100.00
72585;BME280;73873;40.084;32.908;2024-02-14T00:33:33;88879.78;;;6.73;100.00
72585;BME280;73873;40.084;32.908;2024-02-14T00:36:00;88867.19;;;6.83;100.00
72585;BME280;73873;40.084;32.908;2024-02-14T00:38:27;88865.56;;;6.91;100.00
72585;BME280;73873;40.084;32.908;2024-02-14T00:40:54;88855.84;;;6.82;100.00
72585;BME280;73873;40.084;32.908;2024-02-14T00:43:21;88863.06;;;6.82;100.00
72585;BME280;73873;40.084;32.908;2024-02-14T00:45:48;88851.31;;;6.83;100.00
72585;BME280;73873;40.084;32.908;2024-02-14T00:48:15;88853.28;;;6.88;100.00
72585;BME280;73873;40.084;32.908;2024-02-14T00:50:42;88857.63;;;6.91;100.00
72585;BME280;73873;40.084;32.908;2024-02-14T00:53:09;88850.63;;;6.88;100.00
72585;BME280;73873;40.084;32.908;2024-02-14T00:55:36;88852.06;;;6.89;100.00
72585;BME280;73873;40.084;32.908;2024-02-14T00:58:03;88851.81;;;6.87;100.00
72585;BME280;73873;40.084;32.908;2024-02-14T01:00:30;88846.59;;;6.72;100.00
72585;BME280;73873;40.084;32.908;2024-02-14T01:02:58;88842.94;;;6.49;100.00
72585;BME280;73873;40.084;32.908;2024-02-14T01:05:25;88848.09;;;6.38;100.00
72585;BME280;73873;40.084;32.908;2024-02-14T01:07:52;88851.59;;;6.30;100.00
72585;BME280;73873;40.084;32.908;2024-02-14T01:10:20;88841.75;;;6.15;100.00
72585;BME280;73873;40.084;32.908;2024-02-14T01:12:47;88850.00;;;6.03;100.00
72585;BME280;73873;40.084;32.908;2024-02-14T01:15:14;88847.19;;;5.91;100.00
72585;BME280;73873;40.084;32.908;2024-02-14T01:17:41;88849.09;;;5.91;100.00
72585;BME280;73873;40.084;32.908;2024-02-14T01:20:08;88851.66;;;5.85;100.00
72585;BME280;73873;40.084;32.908;2024-02-14T01:22:35;88849.63;;;5.80;100.00
72585;BME280;73873;40.084;32.908;2024-02-14T01:25:03;88849.63;;;5.80;100.00
72585;BME280;73873;40.084;32.908;2024-02-14T01:27:30;88848.19;;;5.79;100.00
72585;BME280;73873;40.084;32.908;2024-02-14T01:29:57;88846.72;;;5.93;100.00
72585;BME280;73873;40.084;32.908;2024-02-14T01:32:24;88845.63;;;6.00;100.00
72585;BME280;73873;40.084;32.908;2024-02-14T01:34:51;88842.53;;;5.86;100.00
72585;BME280;73873;40.084;32.908;2024-02-14T01:37:18;88836.16;;;5.78;100.00
72585;BME280;73873;40.084;32.908;2024-02-14T01:39:45;88840.66;;;5.57;100.00
72585;BME280;73873;40.084;32.908;2024-02-14T01:42:12;88837.72;;;5.70;100.00
72585;BME280;73873;40.084;32.908;2024-02-14T01:44:39;88832.34;;;5.64;100.00
72585;BME280;73873;40.084;32.908;2024-02-14T01:47:06;88826.88;;;5.53;100.00
72585;BME280;73873;40.084;32.908;2024-02-14T01:49:34;88824.69;;;5.52;100.00
72585;BME280;73873;40.084;32.908;2024-02-14T01:52:02;88821.78;;;5.50;100.00
72585;BME280;73873;40.084;32.908;2024-02-14T01:54:30;88819.78;;;5.45;100.00
72585;BME280;73873;40.084;32.908;2024-02-14T01:56:58;88817.41;;;5.61;100.00
72585;BME280;73873;40.084;32.908;2024-02-14T01:59:26;88822.50;;;5.65;100.00
72585;BME280;73873;40.084;32.908;2024-02-14T02:01:53;88817.94;;;5.65;100.00
72585;BME280;73873;40.084;32.908;2024-02-14T02:04:20;88821.03;;;5.64;100.00
72585;BME280;73873;40.084;32.908;2024-02-14T02:06:47;88811.22;;;5.50;100.00
72585;BME280;73873;40.084;32.908;2024-02-14T02:09:13;88811.84;;;5.45;100.00
72585;BME280;73873;40.084;32.908;2024-02-14T02:11:51;88818.53;;;5.40;100.00
72585;BME280;73873;40.084;32.908;2024-02-14T02:14:18;88815.06;;;5.34;100.00
72585;BME280;73873;40.084;32.908;2024-02-14T02:16:45;88812.41;;;5.34;100.00
72585;BME280;73873;40.084;32.908;2024-02-14T02:19:12;88816.69;;;5.31;100.00
72585;BME280;73873;40.084;32.908;2024-02-14T02:21:39;88816.69;;;5.31;100.00
72585;BME280;73873;40.084;32.908;2024-02-14T02:24:06;88806.88;;;5.32;100.00
72585;BME280;73873;40.084;32.908;2024-02-14T02:26:33;88810.50;;;5.34;100.00
72585;BME280;73873;40.084;32.908;2024-02-14T02:29:00;88804.69;;;5.30;100.00
72585;BME280;73873;40.084;32.908;2024-02-14T02:31:27;88808.31;;;5.33;100.00
72585;BME280;73873;40.084;32.908;2024-02-14T02:33:54;88810.22;;;5.32;100.00
72585;BME280;73873;40.084;32.908;2024-02-14T02:36:21;88809.59;;;5.23;100.00
72585;BME280;73873;40.084;32.908;2024-02-14T02:38:48;88813.50;;;5.27;100.00
72585;BME280;73873;40.084;32.908;2024-02-14T02:41:15;88815.78;;;5.34;100.00
72585;BME280;73873;40.084;32.908;2024-02-14T02:43:42;88810.75;;;5.07;100.00
72585;BME280;73873;40.084;32.908;2024-02-14T02:46:09;88826.25;;;4.75;100.00
72585;BME280;73873;40.084;32.908;2024-02-14T02:48:36;88826.97;;;4.76;100.00
72585;BME280;73873;40.084;32.908;2024-02-14T02:51:03;88821.19;;;4.87;100.00
72585;BME280;73873;40.084;32.908;2024-02-14T02:53:31;88818.50;;;4.96;100.00
72585;BME280;73873;40.084;32.908;2024-02-14T02:55:58;88817.84;;;5.01;100.00
72585;BME280;73873;40.084;32.908;2024-02-14T02:58:25;88807.66;;;5.08;100.00
72585;BME280;73873;40.084;32.908;2024-02-14T03:00:52;88813.66;;;5.09;100.00
72585;BME280;73873;40.084;32.908;2024-02-14T03:03:18;88809.75;;;5.19;100.00
72585;BME280;73873;40.084;32.908;2024-02-14T03:05:45;88818.19;;;4.94;100.00
72585;BME280;73873;40.084;32.908;2024-02-14T03:08:12;88819.66;;;4.95;100.00
72585;BME280;73873;40.084;32.908;2024-02-14T03:10:39;88821.22;;;5.01;100.00
72585;BME280;73873;40.084;32.908;2024-02-14T03:13:07;88814.41;;;5.24;100.00
72585;BME280;73873;40.084;32.908;2024-02-14T03:15:34;88812.69;;;5.36;100.00
72585;BME280;73873;40.084;32.908;2024-02-14T03:18:01;88813.56;;;5.48;100.00
72585;BME280;73873;40.084;32.908;2024-02-14T03:20:28;88812.03;;;5.56;100.00
72585;BME280;73873;40.084;32.908;2024-02-14T03:22:55;88812.84;;;5.62;100.00
72585;BME280;73873;40.084;32.908;2024-02-14T03:25:22;88814.88;;;5.67;100.00
72585;BME280;73873;40.084;32.908;2024-02-14T03:27:49;88807.09;;;5.78;100.00
72585;BME280;73873;40.084;32.908;2024-02-14T03:30:19;88811.38;;;5.76;100.00
72585;BME280;73873;40.084;32.908;2024-02-14T03:32:46;88810.00;;;5.80;100.00
72585;BME280;73873;40.084;32.908;2024-02-14T03:35:13;88813.00;;;5.88;100.00
72585;BME280;73873;40.084;32.908;2024-02-14T03:37:41;88817.56;;;5.87;100.00
72585;BME280;73873;40.084;32.908;2024-02-14T03:40:09;88812.94;;;5.67;100.00
72585;BME280;73873;40.084;32.908;2024-02-14T03:42:36;88808.84;;;5.52;100.00
72585;BME280;73873;40.084;32.908;2024-02-14T03:45:03;88811.75;;;5.54;100.00
72585;BME280;73873;40.084;32.908;2024-02-14T03:47:34;88815.78;;;5.49;100.00
72585;BME280;73873;40.084;32.908;2024-02-14T03:50:02;88807.75;;;5.44;100.00
72585;BME280;73873;40.084;32.908;2024-02-14T03:52:29;88814.69;;;5.41;100.00
72585;BME280;73873;40.084;32.908;2024-02-14T03:54:56;88821.31;;;5.36;100.00
72585;BME280;73873;40.084;32.908;2024-02-14T03:57:22;88817.78;;;5.39;100.00
72585;BME280;73873;40.084;32.908;2024-02-14T03:59:49;88813.03;;;5.29;100.00
72585;BME280;73873;40.084;32.908;2024-02-14T04:02:16;88813.22;;;5.25;100.00
72585;BME280;73873;40.084;32.908;2024-02-14T04:04:43;88816.13;;;5.27;100.00
72585;BME280;73873;40.084;32.908;2024-02-14T04:07:10;88816.78;;;5.22;100.00
72585;BME280;73873;40.084;32.908;2024-02-14T04:09:37;88816.88;;;5.28;100.00
72585;BME280;73873;40.084;32.908;2024-02-14T04:12:05;88821.06;;;5.34;100.00
72585;BME280;73873;40.084;32.908;2024-02-14T04:14:32;88816.69;;;5.31;100.00
72585;BME280;73873;40.084;32.908;2024-02-14T04:16:59;88823.97;;;5.36;100.00
72585;BME280;73873;40.084;32.908;2024-02-14T04:19:25;88813.75;;;5.29;100.00
72585;BME280;73873;40.084;32.908;2024-02-14T04:21:53;88817.22;;;5.35;100.00
72585;BME280;73873;40.084;32.908;2024-02-14T04:24:20;88827.97;;;5.47;100.00
72585;BME280;73873;40.084;32.908;2024-02-14T04:26:46;88828.53;;;5.51;100.00
72585;BME280;73873;40.084;32.908;2024-02-14T04:29:13;88828.16;;;5.43;100.00
72585;BME280;73873;40.084;32.908;2024-02-14T04:31:40;88827.53;;;5.48;100.00
72585;BME280;73873;40.084;32.908;2024-02-14T04:34:07;88827.69;;;5.45;100.00
72585;BME280;73873;40.084;32.908;2024-02-14T04:36:34;88828.59;;;5.56;100.00
72585;BME280;73873;40.084;32.908;2024-02-14T04:39:01;88826.78;;;5.48;100.00
72585;BME280;73873;40.084;32.908;2024-02-14T04:41:28;88828.78;;;5.53;100.00
72585;BME280;73873;40.084;32.908;2024-02-14T04:43:55;88825.22;;;5.56;100.00
72585;BME280;73873;40.084;32.908;2024-02-14T04:46:22;88834.06;;;5.53;100.00
72585;BME280;73873;40.084;32.908;2024-02-14T04:48:49;88843.81;;;5.61;100.00
72585;BME280;73873;40.084;32.908;2024-02-14T04:51:17;88837.81;;;5.61;100.00
72585;BME280;73873;40.084;32.908;2024-02-14T04:53:44;88839.78;;;5.66;100.00
72585;BME280;73873;40.084;32.908;2024-02-14T04:56:10;88836.16;;;5.63;100.00
72585;BME280;73873;40.084;32.908;2024-02-14T04:58:37;88838.53;;;5.61;100.00
72585;BME280;73873;40.084;32.908;2024-02-14T05:01:04;88838.00;;;5.57;100.00
72585;BME280;73873;40.084;32.908;2024-02-14T05:03:31;88843.91;;;5.67;100.00
72585;BME280;73873;40.084;32.908;2024-02-14T05:05:58;88841.44;;;5.63;100.00
72585;BME280;73873;40.084;32.908;2024-02-14T05:08:25;88848.19;;;5.50;100.00
72585;BME280;73873;40.084;32.908;2024-02-14T05:10:52;88842.63;;;5.48;100.00
72585;BME280;73873;40.084;32.908;2024-02-14T05:13:19;88851.56;;;5.50;100.00
72585;BME280;73873;40.084;32.908;2024-02-14T05:15:46;88849.28;;;5.58;100.00
72585;BME280;73873;40.084;32.908;2024-02-14T05:18:15;88855.13;;;5.62;100.00
72585;BME280;73873;40.084;32.908;2024-02-14T05:20:42;88856.59;;;5.48;100.00
72585;BME280;73873;40.084;32.908;2024-02-14T05:23:09;88854.22;;;5.50;100.00
72585;BME280;73873;40.084;32.908;2024-02-14T05:25:36;88858.94;;;5.31;100.00
72585;BME280;73873;40.084;32.908;2024-02-14T05:28:03;88848.81;;;5.45;100.00
72585;BME280;73873;40.084;32.908;2024-02-14T05:30:30;88857.56;;;5.51;100.00
72585;BME280;73873;40.084;32.908;2024-02-14T05:32:57;88853.56;;;5.40;100.00
72585;BME280;73873;40.084;32.908;2024-02-14T05:35:24;88857.09;;;5.37;100.00
72585;BME280;73873;40.084;32.908;2024-02-14T05:37:51;88852.84;;;5.40;100.00
72585;BME280;73873;40.084;32.908;2024-02-14T05:40:18;88858.84;;;5.40;100.00
72585;BME280;73873;40.084;32.908;2024-02-14T05:42:45;88857.56;;;5.51;100.00
72585;BME280;73873;40.084;32.908;2024-02-14T05:45:13;88855.47;;;5.55;100.00
72585;BME280;73873;40.084;32.908;2024-02-14T05:47:40;88859.66;;;5.61;100.00
72585;BME280;73873;40.084;32.908;2024-02-14T05:50:07;88863.50;;;5.60;100.00
72585;BME280;73873;40.084;32.908;2024-02-14T05:52:34;88859.94;;;5.63;100.00
72585;BME280;73873;40.084;32.908;2024-02-14T05:55:01;88865.69;;;5.62;100.00
72585;BME280;73873;40.084;32.908;2024-02-14T05:57:28;88865.94;;;5.34;100.00
72585;BME280;73873;40.084;32.908;2024-02-14T05:59:55;88873.47;;;5.27;100.00
72585;BME280;73873;40.084;32.908;2024-02-14T06:02:23;88867.84;;;5.34;100.00
72585;BME280;73873;40.084;32.908;2024-02-14T06:04:50;88861.41;;;5.50;100.00
72585;BME280;73873;40.084;32.908;2024-02-14T06:07:17;88864.94;;;5.47;100.00
72585;BME280;73873;40.084;32.908;2024-02-14T06:09:44;88856.56;;;5.63;100.00
72585;BME280;73873;40.084;32.908;2024-02-14T06:12:11;88851.13;;;5.66;100.00
72585;BME280;73873;40.084;32.908;2024-02-14T06:14:38;88857.38;;;5.84;100.00
72585;BME280;73873;40.084;32.908;2024-02-14T06:17:05;88863.31;;;5.79;100.00
72585;BME280;73873;40.084;32.908;2024-02-14T06:19:32;88855.09;;;5.91;100.00
72585;BME280;73873;40.084;32.908;2024-02-14T06:21:59;88861.03;;;5.86;100.00
72585;BME280;73873;40.084;32.908;2024-02-14T06:24:25;88852.09;;;5.98;100.00
72585;BME280;73873;40.084;32.908;2024-02-14T06:26:52;88851.47;;;6.04;100.00
72585;BME280;73873;40.084;32.908;2024-02-14T06:29:19;88854.00;;;6.13;100.00
72585;BME280;73873;40.084;32.908;2024-02-14T06:31:46;88848.84;;;6.24;100.00
72585;BME280;73873;40.084;32.908;2024-02-14T06:34:13;88841.75;;;6.30;100.00
72585;BME280;73873;40.084;32.908;2024-02-14T06:36:40;88847.81;;;6.36;100.00
72585;BME280;73873;40.084;32.908;2024-02-14T06:39:07;88843.91;;;6.32;100.00
72585;BME280;73873;40.084;32.908;2024-02-14T06:41:34;88843.00;;;6.35;100.00
72585;BME280;73873;40.084;32.908;2024-02-14T06:44:01;88840.31;;;6.49;100.00
72585;BME280;73873;40.084;32.908;2024-02-14T06:46:28;88839.50;;;6.64;100.00
72585;BME280;73873;40.084;32.908;2024-02-14T06:48:55;88833.56;;;6.69;100.00
72585;BME280;73873;40.084;32.908;2024-02-14T06:51:23;88838.06;;;6.63;100.00
72585;BME280;73873;40.084;32.908;2024-02-14T06:53:50;88838.13;;;6.68;100.00
72585;BME280;73873;40.084;32.908;2024-02-14T06:56:17;88836.34;;;6.80;100.00
72585;BME280;73873;40.084;32.908;2024-02-14T06:58:44;88826.41;;;6.95;100.00
72585;BME280;73873;40.084;32.908;2024-02-14T07:01:11;88823.66;;;6.84;100.00
72585;BME280;73873;40.084;32.908;2024-02-14T07:03:37;88821.91;;;6.81;100.00
72585;BME280;73873;40.084;32.908;2024-02-14T07:06:05;88823.22;;;6.91;100.00
72585;BME280;73873;40.084;32.908;2024-02-14T07:08:31;88825.69;;;6.95;100.00
72585;BME280;73873;40.084;32.908;2024-02-14T07:10:58;88830.59;;;6.61;100.00
72585;BME280;73873;40.084;32.908;2024-02-14T07:13:25;88829.22;;;6.66;100.00
72585;BME280;73873;40.084;32.908;2024-02-14T07:15:52;88843.94;;;6.72;100.00
72585;BME280;73873;40.084;32.908;2024-02-14T07:18:19;88835.00;;;6.90;100.00
72585;BME280;73873;40.084;32.908;2024-02-14T07:20:46;88840.91;;;6.79;100.00
72585;BME280;73873;40.084;32.908;2024-02-14T07:23:13;88831.72;;;6.75;100.00
72585;BME280;73873;40.084;32.908;2024-02-14T07:25:40;88834.66;;;6.82;100.00
72585;BME280;73873;40.084;32.908;2024-02-14T07:28:07;88828.66;;;6.82;100.00
72585;BME280;73873;40.084;32.908;2024-02-14T07:30:33;88825.75;;;6.80;100.00
72585;BME280;73873;40.084;32.908;2024-02-14T07:33:00;88836.00;;;6.93;100.00
72585;BME280;73873;40.084;32.908;2024-02-14T07:35:27;88839.78;;;6.66;100.00
72585;BME280;73873;40.084;32.908;2024-02-14T07:37:54;88853.53;;;6.49;100.00
72585;BME280;73873;40.084;32.908;2024-02-14T07:40:22;88847.69;;;6.45;100.00
72585;BME280;73873;40.084;32.908;2024-02-14T07:42:48;88852.22;;;6.60;100.00
72585;BME280;73873;40.084;32.908;2024-02-14T07:45:15;88843.81;;;6.61;100.00
72585;BME280;73873;40.084;32.908;2024-02-14T07:47:42;88843.41;;;6.68;100.00
72585;BME280;73873;40.084;32.908;2024-02-14T07:50:09;88846.44;;;6.81;100.00
72585;BME280;73873;40.084;32.908;2024-02-14T07:52:36;88842.56;;;6.97;100.00
72585;BME280;73873;40.084;32.908;2024-02-14T07:55:04;88836.38;;;7.06;100.00
72585;BME280;73873;40.084;32.908;2024-02-14T07:57:31;88838.38;;;7.11;100.00
72585;BME280;73873;40.084;32.908;2024-02-14T07:59:57;88848.38;;;7.01;100.00
72585;BME280;73873;40.084;32.908;2024-02-14T08:02:24;88845.34;;;6.88;100.00
72585;BME280;73873;40.084;32.908;2024-02-14T08:04:51;88852.22;;;6.80;100.00
72585;BME280;73873;40.084;32.908;2024-02-14T08:07:19;88850.16;;;6.69;100.00
72585;BME280;73873;40.084;32.908;2024-02-14T08:09:46;88854.47;;;6.67;100.00
72585;BME280;73873;40.084;32.908;2024-02-14T08:12:12;88855.13;;;6.62;100.00
72585;BME280;73873;40.084;32.908;2024-02-14T08:14:39;88848.00;;;6.68;100.00
72585;BME280;73873;40.084;32.908;2024-02-14T08:17:06;88843.59;;;6.65;100.00
72585;BME280;73873;40.084;32.908;2024-02-14T08:19:33;88838.66;;;6.72;100.00
72585;BME280;73873;40.084;32.908;2024-02-14T08:22:00;88834.34;;;6.95;100.00
72585;BME280;73873;40.084;32.908;2024-02-14T08:24:27;88830.69;;;7.13;100.00
72585;BME280;73873;40.084;32.908;2024-02-14T08:26:54;88838.00;;;7.24;100.00
72585;BME280;73873;40.084;32.908;2024-02-14T08:29:21;88834.44;;;7.27;100.00
72585;BME280;73873;40.084;32.908;2024-02-14T08:31:49;88831.63;;;7.36;100.00
72585;BME280;73873;40.084;32.908;2024-02-14T08:34:15;88827.50;;;7.55;100.00
72585;BME280;73873;40.084;32.908;2024-02-14T08:36:43;88828.88;;;7.77;100.00
72585;BME280;73873;40.084;32.908;2024-02-14T08:39:10;88831.09;;;7.84;100.00
72585;BME280;73873;40.084;32.908;2024-02-14T08:41:37;88833.19;;;7.74;100.00
72585;BME280;73873;40.084;32.908;2024-02-14T08:44:04;88828.50;;;7.63;100.00
72585;BME280;73873;40.084;32.908;2024-02-14T08:46:31;88826.28;;;7.56;100.00
72585;BME280;73873;40.084;32.908;2024-02-14T08:49:01;88830.03;;;7.44;100.00
72585;BME280;73873;40.084;32.908;2024-02-14T08:51:29;88828.69;;;7.28;100.00
72585;BME280;73873;40.084;32.908;2024-02-14T08:53:56;88828.22;;;7.30;100.00
72585;BME280;73873;40.084;32.908;2024-02-14T08:56:23;88819.47;;;7.24;100.00
72585;BME280;73873;40.084;32.908;2024-02-14T08:58:50;88821.16;;;7.21;100.00
72585;BME280;73873;40.084;32.908;2024-02-14T09:01:17;88821.81;;;7.16;100.00
72585;BME280;73873;40.084;32.908;2024-02-14T09:03:44;88800.31;;;7.08;100.00
72585;BME280;73873;40.084;32.908;2024-02-14T09:06:11;88800.38;;;7.14;100.00
72585;BME280;73873;40.084;32.908;2024-02-14T09:08:39;88802.59;;;6.95;100.00
72585;BME280;73873;40.084;32.908;2024-02-14T09:11:06;88795.63;;;6.98;100.00
72585;BME280;73873;40.084;32.908;2024-02-14T09:13:32;88797.81;;;6.99;100.00
72585;BME280;73873;40.084;32.908;2024-02-14T09:16:00;88786.09;;;7.06;100.00
72585;BME280;73873;40.084;32.908;2024-02-14T09:18:26;88788.34;;;7.19;100.00
72585;BME280;73873;40.084;32.908;2024-02-14T09:20:53;88773.81;;;7.08;100.00
72585;BME280;73873;40.084;32.908;2024-02-14T09:23:20;88779.13;;;7.08;100.00
72585;BME280;73873;40.084;32.908;2024-02-14T09:25:48;88778.53;;;7.19;100.00
72585;BME280;73873;40.084;32.908;2024-02-14T09:28:18;88774.78;;;7.05;100.00
72585;BME280;73873;40.084;32.908;2024-02-14T09:30:45;88755.56;;;7.10;100.00
72585;BME280;73873;40.084;32.908;2024-02-14T09:33:12;88763.81;;;7.18;100.00
72585;BME280;73873;40.084;32.908;2024-02-14T09:35:39;88756.75;;;7.09;100.00
72585;BME280;73873;40.084;32.908;2024-02-14T09:38:06;88761.88;;;7.19;100.00
72585;BME280;73873;40.084;32.908;2024-02-14T09:40:34;88764.53;;;7.19;100.00
72585;BME280;73873;40.084;32.908;2024-02-14T09:43:03;88757.84;;;7.23;100.00
72585;BME280;73873;40.084;32.908;2024-02-14T09:45:32;88747.72;;;7.22;100.00
72585;BME280;73873;40.084;32.908;2024-02-14T09:47:59;88739.31;;;7.23;100.00
72585;BME280;73873;40.084;32.908;2024-02-14T09:50:28;88736.66;;;7.23;100.00
72585;BME280;73873;40.084;32.908;2024-02-14T09:52:56;88733.34;;;7.28;100.00
72585;BME280;73873;40.084;32.908;2024-02-14T09:55:24;88730.09;;;7.19;100.00
72585;BME280;73873;40.084;32.908;2024-02-14T09:57:52;88729.75;;;7.31;100.00
72585;BME280;73873;40.084;32.908;2024-02-14T10:00:21;88719.50;;;7.19;100.00
72585;BME280;73873;40.084;32.908;2024-02-14T10:02:49;88725.56;;;7.19;100.00
72585;BME280;73873;40.084;32.908;2024-02-14T10:05:16;88724.28;;;7.40;100.00
72585;BME280;73873;40.084;32.908;2024-02-14T10:07:44;88722.59;;;7.43;100.00
72585;BME280;73873;40.084;32.908;2024-02-14T10:10:11;88717.34;;;7.49;100.00
72585;BME280;73873;40.084;32.908;2024-02-14T10:12:38;88718.44;;;7.36;100.00
72585;BME280;73873;40.084;32.908;2024-02-14T10:15:05;88724.66;;;7.28;100.00
72585;BME280;73873;40.084;32.908;2024-02-14T10:17:33;88723.34;;;7.18;100.00
72585;BME280;73873;40.084;32.908;2024-02-14T10:20:02;88727.19;;;7.11;100.00
72585;BME280;73873;40.084;32.908;2024-02-14T10:22:33;88737.06;;;7.16;100.00
72585;BME280;73873;40.084;32.908;2024-02-14T10:25:00;88741.13;;;7.11;100.00
72585;BME280;73873;40.084;32.908;2024-02-14T10:27:27;88742.78;;;7.09;100.00
72585;BME280;73873;40.084;32.908;2024-02-14T10:29:56;88741.56;;;7.04;100.00
72585;BME280;73873;40.084;32.908;2024-02-14T10:32:23;88743.41;;;6.98;100.00
72585;BME280;73873;40.084;32.908;2024-02-14T10:34:50;88747.50;;;6.99;100.00
72585;BME280;73873;40.084;32.908;2024-02-14T10:37:18;88748.28;;;7.05;100.00
72585;BME280;73873;40.084;32.908;2024-02-14T10:39:47;88743.50;;;7.09;100.00
72585;BME280;73873;40.084;32.908;2024-02-14T10:42:16;88737.47;;;7.09;100.00
72585;BME280;73873;40.084;32.908;2024-02-14T10:44:43;88743.50;;;7.09;100.00
72585;BME280;73873;40.084;32.908;2024-02-14T10:47:12;88734.81;;;7.03;100.00
72585;BME280;73873;40.084;32.908;2024-02-14T10:49:43;88734.34;;;7.05;100.00
72585;BME280;73873;40.084;32.908;2024-02-14T10:52:12;88735.28;;;7.02;100.00
72585;BME280;73873;40.084;32.908;2024-02-14T10:54:40;88735.72;;;7.00;100.00
72585;BME280;73873;40.084;32.908;2024-02-14T10:57:10;88731.94;;;7.07;100.00
72585;BME280;73873;40.084;32.908;2024-02-14T10:59:44;88736.25;;;7.04;100.00
72585;BME280;73873;40.084;32.908;2024-02-14T11:02:12;88736.00;;;7.02;100.00
72585;BME280;73873;40.084;32.908;2024-02-14T11:04:39;88740.09;;;7.03;100.00
72585;BME280;73873;40.084;32.908;2024-02-14T11:07:09;88733.84;;;7.06;100.00
72585;BME280;73873;40.084;32.908;2024-02-14T11:09:37;88715.16;;;7.16;100.00
72585;BME280;73873;40.084;32.908;2024-02-14T11:12:09;88712.09;;;7.23;100.00
72585;BME280;73873;40.084;32.908;2024-02-14T11:14:37;88717.22;;;7.32;100.00
72585;BME280;73873;40.084;32.908;2024-02-14T11:17:08;88716.28;;;7.35;100.00
72585;BME280;73873;40.084;32.908;2024-02-14T11:19:36;88716.56;;;7.37;100.00
72585;BME280;73873;40.084;32.908;2024-02-14T11:22:17;88719.63;;;7.30;100.00
72585;BME280;73873;40.084;32.908;2024-02-14T11:24:47;88717.69;;;7.30;100.00
72585;BME280;73873;40.084;32.908;2024-02-14T11:27:17;88708.59;;;7.37;100.00
72585;BME280;73873;40.084;32.908;2024-02-14T11:30:00;88702.06;;;7.32;100.00
72585;BME280;73873;40.084;32.908;2024-02-14T11:32:47;88699.88;;;7.31;100.00
72585;BME280;73873;40.084;32.908;2024-02-14T11:35:26;88694.38;;;7.34;100.00
72585;BME280;73873;40.084;32.908;2024-02-14T11:37:54;88692.72;;;7.37;100.00
72585;BME280;73873;40.084;32.908;2024-02-14T11:40:20;88704.66;;;7.27;100.00
72585;BME280;73873;40.084;32.908;2024-02-14T11:42:47;88700.09;;;7.27;100.00
72585;BME280;73873;40.084;32.908;2024-02-14T11:45:14;88699.34;;;7.27;100.00
72585;BME280;73873;40.084;32.908;2024-02-14T11:47:41;88694.06;;;7.27;100.00
72585;BME280;73873;40.084;32.908;2024-02-14T11:50:09;88704.47;;;7.36;100.00
72585;BME280;73873;40.084;32.908;2024-02-14T11:52:36;88696.72;;;7.27;100.00
72585;BME280;73873;40.084;32.908;2024-02-14T11:55:03;88701.03;;;7.24;100.00
72585;BME280;73873;40.084;32.908;2024-02-14T11:57:30;88697.72;;;7.29;100.00
72585;BME280;73873;40.084;32.908;2024-02-14T11:59:57;88703.22;;;7.26;100.00
72585;BME280;73873;40.084;32.908;2024-02-14T12:02:24;88688.75;;;7.27;100.00
72585;BME280;73873;40.084;32.908;2024-02-14T12:04:51;88695.25;;;7.26;100.00
72585;BME280;73873;40.084;32.908;2024-02-14T12:07:19;88692.66;;;7.31;100.00
72585;BME280;73873;40.084;32.908;2024-02-14T12:09:46;88702.78;;;7.33;100.00
72585;BME280;73873;40.084;32.908;2024-02-14T12:12:13;88686.09;;;7.21;100.00
72585;BME280;73873;40.084;32.908;2024-02-14T12:14:40;88681.22;;;7.14;100.00
72585;BME280;73873;40.084;32.908;2024-02-14T12:17:07;88673.31;;;7.20;100.00
72585;BME280;73873;40.084;32.908;2024-02-14T12:19:33;88673.91;;;7.03;100.00
72585;BME280;73873;40.084;32.908;2024-02-14T12:22:01;88679.88;;;6.98;100.00
72585;BME280;73873;40.084;32.908;2024-02-14T12:24:28;88683.22;;;6.93;100.00
72585;BME280;73873;40.084;32.908;2024-02-14T12:26:55;88681.78;;;6.92;100.00
72585;BME280;73873;40.084;32.908;2024-02-14T12:29:23;88686.13;;;6.95;100.00
72585;BME280;73873;40.084;32.908;2024-02-14T12:31:50;88687.06;;;6.92;100.00
72585;BME280;73873;40.084;32.908;2024-02-14T12:34:17;88697.94;;;7.00;100.00
72585;BME280;73873;40.084;32.908;2024-02-14T12:36:47;88683.81;;;7.08;100.00
72585;BME280;73873;40.084;32.908;2024-02-14T12:39:14;88681.88;;;7.09;100.00
72585;BME280;73873;40.084;32.908;2024-02-14T12:41:41;88680.50;;;7.14;100.00
72585;BME280;73873;40.084;32.908;2024-02-14T12:44:08;88677.16;;;7.19;100.00
72585;BME280;73873;40.084;32.908;2024-02-14T12:46:35;88688.44;;;7.14;100.00
72585;BME280;73873;40.084;32.908;2024-02-14T12:49:01;88680.50;;;7.14;100.00
72585;BME280;73873;40.084;32.908;2024-02-14T12:51:28;88671.78;;;7.07;100.00